sensor_id;sensor_type;location;lat;lon;timestamp;P1;durP1;ratioP1;P2;durP2;ratioP2
53273;SDS011;39163;52.696;6.758;2024-03-02T00:01:19;4.43;;;1.15;;
53273;SDS011;39163;52.696;6.758;2024-03-02T00:03:46;4.03;;;1.73;;
53273;SDS011;39163;52.696;6.758;2024-03-02T00:06:13;5.30;;;1.60;;
53273;SDS011;39163;52.696;6.758;2024-03-02T00:08:40;2.70;;;1.50;;
53273;SDS011;39163;52.696;6.758;2024-03-02T00:11:07;4.90;;;1.77;;
53273;SDS011;39163;52.696;6.758;2024-03-02T00:13:36;2.20;;;1.17;;
53273;SDS011;39163;52.696;6.758;2024-03-02T00:16:04;3.03;;;1.40;;
53273;SDS011;39163;52.696;6.758;2024-03-02T00:18:34;2.55;;;1.75;;
53273;SDS011;39163;52.696;6.758;2024-03-02T00:21:02;4.10;;;2.00;;
53273;SDS011;39163;52.696;6.758;2024-03-02T00:23:34;4.32;;;1.90;;
53273;SDS011;39163;52.696;6.758;2024-03-02T00:26:02;4.40;;;1.95;;
53273;SDS011;39163;52.696;6.758;2024-03-02T00:28:29;2.60;;;1.40;;
53273;SDS011;39163;52.696;6.758;2024-03-02T00:30:59;2.60;;;1.45;;
53273;SDS011;39163;52.696;6.758;2024-03-02T00:33:30;3.45;;;1.70;;
53273;SDS011;39163;52.696;6.758;2024-03-02T00:36:00;2.90;;;1.92;;
53273;SDS011;39163;52.696;6.758;2024-03-02T00:38:28;3.67;;;1.42;;
53273;SDS011;39163;52.696;6.758;2024-03-02T00:40:56;3.50;;;1.50;;
53273;SDS011;39163;52.696;6.758;2024-03-02T00:43:38;5.85;;;2.38;;
53273;SDS011;39163;52.696;6.758;2024-03-02T00:46:11;2.67;;;1.23;;
53273;SDS011;39163;52.696;6.758;2024-03-02T00:48:47;3.30;;;1.45;;
53273;SDS011;39163;52.696;6.758;2024-03-02T00:51:18;4.45;;;1.20;;
53273;SDS011;39163;52.696;6.758;2024-03-02T00:53:45;3.15;;;1.10;;
53273;SDS011;39163;52.696;6.758;2024-03-02T00:56:12;2.80;;;1.33;;
53273;SDS011;39163;52.696;6.758;2024-03-02T00:58:40;5.30;;;1.73;;
53273;SDS011;39163;52.696;6.758;2024-03-02T01:01:06;2.30;;;1.20;;
53273;SDS011;39163;52.696;6.758;2024-03-02T01:03:34;2.30;;;1.35;;
53273;SDS011;39163;52.696;6.758;2024-03-02T01:06:02;2.72;;;1.48;;
53273;SDS011;39163;52.696;6.758;2024-03-02T01:08:31;3.20;;;1.58;;
53273;SDS011;39163;52.696;6.758;2024-03-02T01:10:58;3.03;;;1.40;;
53273;SDS011;39163;52.696;6.758;2024-03-02T01:13:25;2.17;;;1.73;;
53273;SDS011;39163;52.696;6.758;2024-03-02T01:15:52;2.25;;;1.33;;
53273;SDS011;39163;52.696;6.758;2024-03-02T01:18:19;3.47;;;1.60;;
53273;SDS011;39163;52.696;6.758;2024-03-02T01:20:47;3.13;;;1.13;;
53273;SDS011;39163;52.696;6.758;2024-03-02T01:23:16;1.92;;;1.10;;
53273;SDS011;39163;52.696;6.758;2024-03-02T01:25:46;2.55;;;1.50;;
53273;SDS011;39163;52.696;6.758;2024-03-02T01:28:13;3.55;;;1.10;;
53273;SDS011;39163;52.696;6.758;2024-03-02T01:30:40;3.20;;;1.52;;
53273;SDS011;39163;52.696;6.758;2024-03-02T01:33:07;3.78;;;1.52;;
53273;SDS011;39163;52.696;6.758;2024-03-02T01:35:34;5.55;;;1.52;;
53273;SDS011;39163;52.696;6.758;2024-03-02T01:38:02;1.55;;;0.95;;
53273;SDS011;39163;52.696;6.758;2024-03-02T01:40:31;3.03;;;1.45;;
53273;SDS011;39163;52.696;6.758;2024-03-02T01:43:00;1.95;;;1.23;;
53273;SDS011;39163;52.696;6.758;2024-03-02T01:45:27;3.38;;;1.70;;
53273;SDS011;39163;52.696;6.758;2024-03-02T01:47:55;3.70;;;1.60;;
53273;SDS011;39163;52.696;6.758;2024-03-02T01:50:25;4.38;;;1.40;;
53273;SDS011;39163;52.696;6.758;2024-03-02T01:52:53;3.17;;;1.60;;
53273;SDS011;39163;52.696;6.758;2024-03-02T01:55:21;4.45;;;1.70;;
53273;SDS011;39163;52.696;6.758;2024-03-02T01:57:48;2.78;;;1.33;;
53273;SDS011;39163;52.696;6.758;2024-03-02T02:00:19;5.47;;;3.03;;
53273;SDS011;39163;52.696;6.758;2024-03-02T02:02:46;2.53;;;1.65;;
53273;SDS011;39163;52.696;6.758;2024-03-02T02:05:14;2.00;;;1.20;;
53273;SDS011;39163;52.696;6.758;2024-03-02T02:07:42;2.40;;;1.27;;
53273;SDS011;39163;52.696;6.758;2024-03-02T02:10:09;3.80;;;1.60;;
53273;SDS011;39163;52.696;6.758;2024-03-02T02:12:36;2.58;;;1.95;;
53273;SDS011;39163;52.696;6.758;2024-03-02T02:15:07;3.60;;;1.50;;
53273;SDS011;39163;52.696;6.758;2024-03-02T02:17:53;2.47;;;1.17;;
53273;SDS011;39163;52.696;6.758;2024-03-02T02:20:20;2.75;;;1.10;;
53273;SDS011;39163;52.696;6.758;2024-03-02T02:22:55;2.35;;;1.45;;
53273;SDS011;39163;52.696;6.758;2024-03-02T02:25:23;4.03;;;1.70;;
53273;SDS011;39163;52.696;6.758;2024-03-02T02:27:50;2.63;;;1.30;;
53273;SDS011;39163;52.696;6.758;2024-03-02T02:30:21;2.75;;;1.35;;
53273;SDS011;39163;52.696;6.758;2024-03-02T02:32:49;3.22;;;1.55;;
53273;SDS011;39163;52.696;6.758;2024-03-02T02:35:16;2.50;;;1.73;;
53273;SDS011;39163;52.696;6.758;2024-03-02T02:37:43;2.78;;;1.55;;
53273;SDS011;39163;52.696;6.758;2024-03-02T02:40:13;4.55;;;1.27;;
53273;SDS011;39163;52.696;6.758;2024-03-02T02:42:40;3.47;;;1.55;;
53273;SDS011;39163;52.696;6.758;2024-03-02T02:45:08;3.33;;;1.17;;
53273;SDS011;39163;52.696;6.758;2024-03-02T02:47:36;3.38;;;1.52;;
53273;SDS011;39163;52.696;6.758;2024-03-02T02:50:03;3.80;;;1.50;;
53273;SDS011;39163;52.696;6.758;2024-03-02T02:52:34;2.20;;;1.15;;
53273;SDS011;39163;52.696;6.758;2024-03-02T02:55:03;3.05;;;1.30;;
53273;SDS011;39163;52.696;6.758;2024-03-02T02:57:32;2.97;;;1.42;;
53273;SDS011;39163;52.696;6.758;2024-03-02T03:00:02;2.25;;;1.38;;
53273;SDS011;39163;52.696;6.758;2024-03-02T03:02:35;4.97;;;2.10;;
53273;SDS011;39163;52.696;6.758;2024-03-02T03:05:03;2.47;;;1.27;;
53273;SDS011;39163;52.696;6.758;2024-03-02T03:07:31;3.10;;;1.48;;
53273;SDS011;39163;52.696;6.758;2024-03-02T03:09:58;2.50;;;1.30;;
53273;SDS011;39163;52.696;6.758;2024-03-02T03:12:25;2.55;;;1.27;;
53273;SDS011;39163;52.696;6.758;2024-03-02T03:14:54;4.45;;;1.35;;
53273;SDS011;39163;52.696;6.758;2024-03-02T03:17:21;3.08;;;1.40;;
53273;SDS011;39163;52.696;6.758;2024-03-02T03:19:47;5.68;;;1.52;;
53273;SDS011;39163;52.696;6.758;2024-03-02T03:22:14;1.90;;;1.02;;
53273;SDS011;39163;52.696;6.758;2024-03-02T03:24:41;2.28;;;1.27;;
53273;SDS011;39163;52.696;6.758;2024-03-02T03:27:09;1.63;;;1.10;;
53273;SDS011;39163;52.696;6.758;2024-03-02T03:29:36;2.40;;;1.30;;
53273;SDS011;39163;52.696;6.758;2024-03-02T03:32:05;3.50;;;1.55;;
53273;SDS011;39163;52.696;6.758;2024-03-02T03:34:33;4.75;;;1.20;;
53273;SDS011;39163;52.696;6.758;2024-03-02T03:37:00;4.70;;;1.30;;
53273;SDS011;39163;52.696;6.758;2024-03-02T03:39:27;3.25;;;0.95;;
53273;SDS011;39163;52.696;6.758;2024-03-02T03:41:54;4.93;;;1.27;;
53273;SDS011;39163;52.696;6.758;2024-03-02T03:44:21;2.75;;;1.27;;
53273;SDS011;39163;52.696;6.758;2024-03-02T03:46:49;2.90;;;1.25;;
53273;SDS011;39163;52.696;6.758;2024-03-02T03:49:17;2.92;;;1.23;;
53273;SDS011;39163;52.696;6.758;2024-03-02T03:51:44;3.85;;;0.95;;
53273;SDS011;39163;52.696;6.758;2024-03-02T03:54:11;2.33;;;1.08;;
53273;SDS011;39163;52.696;6.758;2024-03-02T03:56:38;3.40;;;1.38;;
53273;SDS011;39163;52.696;6.758;2024-03-02T03:59:05;4.15;;;0.90;;
53273;SDS011;39163;52.696;6.758;2024-03-02T04:01:32;1.83;;;0.70;;
53273;SDS011;39163;52.696;6.758;2024-03-02T04:03:59;6.25;;;2.22;;
53273;SDS011;39163;52.696;6.758;2024-03-02T04:06:28;3.10;;;0.88;;
53273;SDS011;39163;52.696;6.758;2024-03-02T04:08:55;5.20;;;1.73;;
53273;SDS011;39163;52.696;6.758;2024-03-02T04:11:22;3.53;;;1.05;;
53273;SDS011;39163;52.696;6.758;2024-03-02T04:13:49;2.38;;;0.85;;
53273;SDS011;39163;52.696;6.758;2024-03-02T04:16:16;2.75;;;1.08;;
53273;SDS011;39163;52.696;6.758;2024-03-02T04:18:43;2.25;;;0.85;;
53273;SDS011;39163;52.696;6.758;2024-03-02T04:21:10;3.47;;;0.75;;
53273;SDS011;39163;52.696;6.758;2024-03-02T04:23:38;4.40;;;1.02;;
53273;SDS011;39163;52.696;6.758;2024-03-02T04:26:05;4.80;;;1.23;;
53273;SDS011;39163;52.696;6.758;2024-03-02T04:28:32;3.33;;;0.80;;
53273;SDS011;39163;52.696;6.758;2024-03-02T04:30:59;4.35;;;0.98;;
53273;SDS011;39163;52.696;6.758;2024-03-02T04:33:26;2.95;;;0.95;;
53273;SDS011;39163;52.696;6.758;2024-03-02T04:35:53;3.78;;;1.48;;
53273;SDS011;39163;52.696;6.758;2024-03-02T04:38:20;4.35;;;1.63;;
53273;SDS011;39163;52.696;6.758;2024-03-02T04:40:49;4.07;;;1.30;;
53273;SDS011;39163;52.696;6.758;2024-03-02T04:43:16;2.38;;;1.02;;
53273;SDS011;39163;52.696;6.758;2024-03-02T04:45:44;4.30;;;1.48;;
53273;SDS011;39163;52.696;6.758;2024-03-02T04:48:11;2.72;;;1.50;;
53273;SDS011;39163;52.696;6.758;2024-03-02T04:50:39;3.33;;;1.00;;
53273;SDS011;39163;52.696;6.758;2024-03-02T04:53:06;3.50;;;1.33;;
53273;SDS011;39163;52.696;6.758;2024-03-02T04:55:33;3.17;;;1.73;;
53273;SDS011;39163;52.696;6.758;2024-03-02T04:58:30;4.47;;;2.22;;
53273;SDS011;39163;52.696;6.758;2024-03-02T05:00:57;4.40;;;1.92;;
53273;SDS011;39163;52.696;6.758;2024-03-02T05:03:24;3.95;;;1.40;;
53273;SDS011;39163;52.696;6.758;2024-03-02T05:05:51;3.53;;;1.33;;
53273;SDS011;39163;52.696;6.758;2024-03-02T05:08:18;3.78;;;1.48;;
53273;SDS011;39163;52.696;6.758;2024-03-02T05:10:44;2.55;;;1.27;;
53273;SDS011;39163;52.696;6.758;2024-03-02T05:13:11;3.92;;;1.45;;
53273;SDS011;39163;52.696;6.758;2024-03-02T05:15:39;4.07;;;1.45;;
53273;SDS011;39163;52.696;6.758;2024-03-02T05:18:06;3.40;;;1.73;;
53273;SDS011;39163;52.696;6.758;2024-03-02T05:20:33;2.63;;;1.30;;
53273;SDS011;39163;52.696;6.758;2024-03-02T05:23:00;4.50;;;2.88;;
53273;SDS011;39163;52.696;6.758;2024-03-02T05:25:27;3.25;;;1.33;;
53273;SDS011;39163;52.696;6.758;2024-03-02T05:27:54;5.20;;;1.23;;
53273;SDS011;39163;52.696;6.758;2024-03-02T05:30:21;2.85;;;1.20;;
53273;SDS011;39163;52.696;6.758;2024-03-02T05:32:49;4.03;;;1.08;;
53273;SDS011;39163;52.696;6.758;2024-03-02T05:35:16;3.22;;;1.10;;
53273;SDS011;39163;52.696;6.758;2024-03-02T05:37:43;2.00;;;1.23;;
53273;SDS011;39163;52.696;6.758;2024-03-02T05:40:10;2.63;;;1.70;;
53273;SDS011;39163;52.696;6.758;2024-03-02T05:42:38;2.55;;;1.33;;
53273;SDS011;39163;52.696;6.758;2024-03-02T05:45:06;3.45;;;1.27;;
53273;SDS011;39163;52.696;6.758;2024-03-02T05:47:34;3.95;;;1.48;;
53273;SDS011;39163;52.696;6.758;2024-03-02T05:50:03;4.68;;;1.38;;
53273;SDS011;39163;52.696;6.758;2024-03-02T05:52:32;4.50;;;1.17;;
53273;SDS011;39163;52.696;6.758;2024-03-02T05:54:59;2.55;;;1.30;;
53273;SDS011;39163;52.696;6.758;2024-03-02T05:57:26;3.00;;;1.55;;
53273;SDS011;39163;52.696;6.758;2024-03-02T06:00:10;3.17;;;1.30;;
53273;SDS011;39163;52.696;6.758;2024-03-02T06:02:38;2.63;;;1.35;;
53273;SDS011;39163;52.696;6.758;2024-03-02T06:05:07;2.90;;;1.45;;
53273;SDS011;39163;52.696;6.758;2024-03-02T06:07:34;2.88;;;2.13;;
53273;SDS011;39163;52.696;6.758;2024-03-02T06:10:01;4.47;;;1.55;;
53273;SDS011;39163;52.696;6.758;2024-03-02T06:12:28;2.90;;;1.35;;
53273;SDS011;39163;52.696;6.758;2024-03-02T06:14:57;4.75;;;1.55;;
53273;SDS011;39163;52.696;6.758;2024-03-02T06:17:24;3.90;;;1.73;;
53273;SDS011;39163;52.696;6.758;2024-03-02T06:19:51;2.78;;;1.35;;
53273;SDS011;39163;52.696;6.758;2024-03-02T06:22:19;3.58;;;1.33;;
53273;SDS011;39163;52.696;6.758;2024-03-02T06:24:48;3.15;;;1.63;;
53273;SDS011;39163;52.696;6.758;2024-03-02T06:27:15;2.58;;;1.30;;
53273;SDS011;39163;52.696;6.758;2024-03-02T06:29:42;2.75;;;1.33;;
53273;SDS011;39163;52.696;6.758;2024-03-02T06:32:09;3.00;;;1.25;;
53273;SDS011;39163;52.696;6.758;2024-03-02T06:34:36;2.85;;;1.75;;
53273;SDS011;39163;52.696;6.758;2024-03-02T06:37:03;5.25;;;1.80;;
53273;SDS011;39163;52.696;6.758;2024-03-02T06:39:31;2.30;;;1.10;;
53273;SDS011;39163;52.696;6.758;2024-03-02T06:41:59;4.63;;;2.53;;
53273;SDS011;39163;52.696;6.758;2024-03-02T06:44:26;3.15;;;1.60;;
53273;SDS011;39163;52.696;6.758;2024-03-02T06:46:53;3.20;;;1.60;;
53273;SDS011;39163;52.696;6.758;2024-03-02T06:49:20;2.17;;;1.08;;
53273;SDS011;39163;52.696;6.758;2024-03-02T06:51:47;2.67;;;1.20;;
53273;SDS011;39163;52.696;6.758;2024-03-02T06:54:15;4.28;;;1.30;;
53273;SDS011;39163;52.696;6.758;2024-03-02T06:56:43;2.28;;;1.15;;
53273;SDS011;39163;52.696;6.758;2024-03-02T06:59:10;2.67;;;1.25;;
53273;SDS011;39163;52.696;6.758;2024-03-02T07:01:37;3.00;;;1.20;;
53273;SDS011;39163;52.696;6.758;2024-03-02T07:04:04;2.58;;;1.25;;
53273;SDS011;39163;52.696;6.758;2024-03-02T07:06:31;3.55;;;1.38;;
53273;SDS011;39163;52.696;6.758;2024-03-02T07:08:58;2.30;;;1.00;;
53273;SDS011;39163;52.696;6.758;2024-03-02T07:11:25;4.47;;;1.52;;
53273;SDS011;39163;52.696;6.758;2024-03-02T07:13:53;1.80;;;1.10;;
53273;SDS011;39163;52.696;6.758;2024-03-02T07:16:20;2.40;;;1.30;;
53273;SDS011;39163;52.696;6.758;2024-03-02T07:18:55;4.30;;;1.35;;
53273;SDS011;39163;52.696;6.758;2024-03-02T07:21:22;3.50;;;1.42;;
53273;SDS011;39163;52.696;6.758;2024-03-02T07:23:49;4.72;;;2.00;;
53273;SDS011;39163;52.696;6.758;2024-03-02T07:26:16;3.97;;;1.98;;
53273;SDS011;39163;52.696;6.758;2024-03-02T07:28:44;5.43;;;1.80;;
53273;SDS011;39163;52.696;6.758;2024-03-02T07:31:14;5.07;;;2.40;;
53273;SDS011;39163;52.696;6.758;2024-03-02T07:33:43;5.72;;;2.42;;
53273;SDS011;39163;52.696;6.758;2024-03-02T07:36:10;5.03;;;2.40;;
53273;SDS011;39163;52.696;6.758;2024-03-02T07:38:37;6.32;;;2.75;;
53273;SDS011;39163;52.696;6.758;2024-03-02T07:41:05;4.68;;;2.35;;
53273;SDS011;39163;52.696;6.758;2024-03-02T07:43:33;4.28;;;2.63;;
53273;SDS011;39163;52.696;6.758;2024-03-02T07:46:00;4.10;;;2.55;;
53273;SDS011;39163;52.696;6.758;2024-03-02T07:48:30;4.68;;;2.40;;
53273;SDS011;39163;52.696;6.758;2024-03-02T07:50:57;4.45;;;2.03;;
53273;SDS011;39163;52.696;6.758;2024-03-02T07:53:24;3.95;;;2.00;;
53273;SDS011;39163;52.696;6.758;2024-03-02T07:55:51;3.40;;;1.40;;
53273;SDS011;39163;52.696;6.758;2024-03-02T07:58:18;3.28;;;2.05;;
53273;SDS011;39163;52.696;6.758;2024-03-02T08:00:45;2.65;;;1.20;;
53273;SDS011;39163;52.696;6.758;2024-03-02T08:03:12;3.65;;;1.25;;
53273;SDS011;39163;52.696;6.758;2024-03-02T08:05:41;3.03;;;1.48;;
53273;SDS011;39163;52.696;6.758;2024-03-02T08:08:08;2.95;;;2.00;;
53273;SDS011;39163;52.696;6.758;2024-03-02T08:10:35;4.53;;;2.00;;
53273;SDS011;39163;52.696;6.758;2024-03-02T08:13:02;3.78;;;2.70;;
53273;SDS011;39163;52.696;6.758;2024-03-02T08:15:29;8.18;;;2.58;;
53273;SDS011;39163;52.696;6.758;2024-03-02T08:17:56;3.47;;;2.17;;
53273;SDS011;39163;52.696;6.758;2024-03-02T08:20:23;3.72;;;2.92;;
53273;SDS011;39163;52.696;6.758;2024-03-02T08:22:52;5.95;;;2.72;;
53273;SDS011;39163;52.696;6.758;2024-03-02T08:25:20;5.25;;;2.17;;
53273;SDS011;39163;52.696;6.758;2024-03-02T08:27:47;3.88;;;1.80;;
53273;SDS011;39163;52.696;6.758;2024-03-02T08:30:14;4.18;;;2.30;;
53273;SDS011;39163;52.696;6.758;2024-03-02T08:32:43;2.90;;;2.40;;
53273;SDS011;39163;52.696;6.758;2024-03-02T08:35:10;5.88;;;2.40;;
53273;SDS011;39163;52.696;6.758;2024-03-02T08:37:37;3.67;;;2.00;;
53273;SDS011;39163;52.696;6.758;2024-03-02T08:40:08;3.45;;;1.92;;
53273;SDS011;39163;52.696;6.758;2024-03-02T08:42:35;4.18;;;2.45;;
53273;SDS011;39163;52.696;6.758;2024-03-02T08:45:04;4.13;;;2.05;;
53273;SDS011;39163;52.696;6.758;2024-03-02T08:47:32;4.55;;;2.08;;
53273;SDS011;39163;52.696;6.758;2024-03-02T08:50:02;3.72;;;1.60;;
53273;SDS011;39163;52.696;6.758;2024-03-02T08:52:30;4.28;;;1.27;;
53273;SDS011;39163;52.696;6.758;2024-03-02T08:54:57;5.18;;;1.52;;
53273;SDS011;39163;52.696;6.758;2024-03-02T08:57:25;2.85;;;1.17;;
53273;SDS011;39163;52.696;6.758;2024-03-02T08:59:52;5.72;;;1.55;;
53273;SDS011;39163;52.696;6.758;2024-03-02T09:02:19;5.65;;;1.30;;
53273;SDS011;39163;52.696;6.758;2024-03-02T09:04:46;2.70;;;1.52;;
53273;SDS011;39163;52.696;6.758;2024-03-02T09:07:13;3.20;;;1.20;;
53273;SDS011;39163;52.696;6.758;2024-03-02T09:09:40;4.72;;;1.83;;
53273;SDS011;39163;52.696;6.758;2024-03-02T09:12:07;3.08;;;1.98;;
53273;SDS011;39163;52.696;6.758;2024-03-02T09:14:36;3.95;;;2.03;;
53273;SDS011;39163;52.696;6.758;2024-03-02T09:17:03;4.53;;;2.65;;
53273;SDS011;39163;52.696;6.758;2024-03-02T09:19:30;2.58;;;1.80;;
53273;SDS011;39163;52.696;6.758;2024-03-02T09:21:57;3.72;;;2.08;;
53273;SDS011;39163;52.696;6.758;2024-03-02T09:24:24;2.72;;;1.80;;
53273;SDS011;39163;52.696;6.758;2024-03-02T09:26:51;3.78;;;1.60;;
53273;SDS011;39163;52.696;6.758;2024-03-02T09:29:19;2.30;;;1.25;;
53273;SDS011;39163;52.696;6.758;2024-03-02T09:31:48;3.75;;;2.00;;
53273;SDS011;39163;52.696;6.758;2024-03-02T09:34:16;3.65;;;0.98;;
53273;SDS011;39163;52.696;6.758;2024-03-02T09:36:43;2.88;;;1.02;;
53273;SDS011;39163;52.696;6.758;2024-03-02T09:39:10;3.78;;;0.90;;
53273;SDS011;39163;52.696;6.758;2024-03-02T09:41:37;3.25;;;1.15;;
53273;SDS011;39163;52.696;6.758;2024-03-02T09:44:04;6.10;;;1.17;;
53273;SDS011;39163;52.696;6.758;2024-03-02T09:46:32;2.60;;;1.05;;
53273;SDS011;39163;52.696;6.758;2024-03-02T09:49:02;3.47;;;1.10;;
53273;SDS011;39163;52.696;6.758;2024-03-02T09:51:29;4.07;;;1.23;;
53273;SDS011;39163;52.696;6.758;2024-03-02T09:53:56;2.88;;;1.25;;
53273;SDS011;39163;52.696;6.758;2024-03-02T09:56:23;3.13;;;1.30;;
53273;SDS011;39163;52.696;6.758;2024-03-02T09:58:50;2.78;;;1.17;;
53273;SDS011;39163;52.696;6.758;2024-03-02T10:01:17;1.85;;;1.00;;
53273;SDS011;39163;52.696;6.758;2024-03-02T10:03:44;1.95;;;1.10;;
53273;SDS011;39163;52.696;6.758;2024-03-02T10:06:19;3.08;;;1.10;;
53273;SDS011;39163;52.696;6.758;2024-03-02T10:08:48;2.87;;;1.10;;
53273;SDS011;39163;52.696;6.758;2024-03-02T10:11:27;3.35;;;1.50;;
53273;SDS011;39163;52.696;6.758;2024-03-02T10:14:05;2.55;;;1.20;;
53273;SDS011;39163;52.696;6.758;2024-03-02T10:16:37;2.42;;;0.70;;
53273;SDS011;39163;52.696;6.758;2024-03-02T10:19:18;2.20;;;1.40;;
53273;SDS011;39163;52.696;6.758;2024-03-02T10:21:47;3.08;;;0.93;;
53273;SDS011;39163;52.696;6.758;2024-03-02T10:24:15;3.67;;;1.10;;
53273;SDS011;39163;52.696;6.758;2024-03-02T10:26:42;3.28;;;1.10;;
53273;SDS011;39163;52.696;6.758;2024-03-02T10:29:09;2.25;;;0.80;;
53273;SDS011;39163;52.696;6.758;2024-03-02T10:31:37;2.17;;;0.68;;
53273;SDS011;39163;52.696;6.758;2024-03-02T10:34:05;3.33;;;0.93;;
53273;SDS011;39163;52.696;6.758;2024-03-02T10:36:32;3.05;;;0.30;;
53273;SDS011;39163;52.696;6.758;2024-03-02T10:39:02;1.88;;;0.35;;
53273;SDS011;39163;52.696;6.758;2024-03-02T10:41:31;0.68;;;0.20;;
53273;SDS011;39163;52.696;6.758;2024-03-02T10:44:01;2.72;;;0.30;;
53273;SDS011;39163;52.696;6.758;2024-03-02T10:46:30;1.95;;;0.30;;
53273;SDS011;39163;52.696;6.758;2024-03-02T10:48:59;1.05;;;0.20;;
53273;SDS011;39163;52.696;6.758;2024-03-02T10:51:28;2.22;;;0.52;;
53273;SDS011;39163;52.696;6.758;2024-03-02T10:53:57;2.38;;;0.30;;
53273;SDS011;39163;52.696;6.758;2024-03-02T10:56:28;1.55;;;0.30;;
53273;SDS011;39163;52.696;6.758;2024-03-02T10:59:01;1.45;;;0.22;;
53273;SDS011;39163;52.696;6.758;2024-03-02T11:01:29;3.67;;;0.35;;
53273;SDS011;39163;52.696;6.758;2024-03-02T11:03:59;6.00;;;0.40;;
53273;SDS011;39163;52.696;6.758;2024-03-02T11:06:28;1.45;;;0.30;;
53273;SDS011;39163;52.696;6.758;2024-03-02T11:08:58;1.75;;;0.40;;
53273;SDS011;39163;52.696;6.758;2024-03-02T11:11:36;1.10;;;0.22;;
53273;SDS011;39163;52.696;6.758;2024-03-02T11:14:07;3.50;;;0.55;;
53273;SDS011;39163;52.696;6.758;2024-03-02T11:16:37;2.75;;;0.68;;
53273;SDS011;39163;52.696;6.758;2024-03-02T11:19:13;3.50;;;0.50;;
53273;SDS011;39163;52.696;6.758;2024-03-02T11:21:42;2.20;;;0.50;;
53273;SDS011;39163;52.696;6.758;2024-03-02T11:24:28;2.28;;;0.47;;
53273;SDS011;39163;52.696;6.758;2024-03-02T11:27:00;2.10;;;0.50;;
53273;SDS011;39163;52.696;6.758;2024-03-02T11:29:43;2.92;;;0.55;;
53273;SDS011;39163;52.696;6.758;2024-03-02T11:32:14;1.60;;;0.55;;
53273;SDS011;39163;52.696;6.758;2024-03-02T11:34:43;2.67;;;0.65;;
53273;SDS011;39163;52.696;6.758;2024-03-02T11:37:13;1.40;;;0.50;;
53273;SDS011;39163;52.696;6.758;2024-03-02T11:39:40;1.52;;;0.47;;
53273;SDS011;39163;52.696;6.758;2024-03-02T11:42:09;3.53;;;0.88;;
53273;SDS011;39163;52.696;6.758;2024-03-02T11:44:39;3.40;;;0.80;;
53273;SDS011;39163;52.696;6.758;2024-03-02T11:47:10;3.67;;;0.80;;
53273;SDS011;39163;52.696;6.758;2024-03-02T11:49:40;1.45;;;0.80;;
53273;SDS011;39163;52.696;6.758;2024-03-02T11:52:09;2.40;;;1.17;;
53273;SDS011;39163;52.696;6.758;2024-03-02T11:54:37;1.88;;;0.90;;
53273;SDS011;39163;52.696;6.758;2024-03-02T11:57:06;1.60;;;0.75;;
53273;SDS011;39163;52.696;6.758;2024-03-02T11:59:34;2.80;;;0.82;;
53273;SDS011;39163;52.696;6.758;2024-03-02T12:02:01;1.58;;;1.02;;
53273;SDS011;39163;52.696;6.758;2024-03-02T12:04:29;1.90;;;0.47;;
53273;SDS011;39163;52.696;6.758;2024-03-02T12:06:58;2.72;;;0.70;;
53273;SDS011;39163;52.696;6.758;2024-03-02T12:09:26;2.65;;;0.80;;
53273;SDS011;39163;52.696;6.758;2024-03-02T12:12:01;3.28;;;1.02;;
53273;SDS011;39163;52.696;6.758;2024-03-02T12:14:30;3.08;;;0.80;;
53273;SDS011;39163;52.696;6.758;2024-03-02T12:16:59;4.50;;;0.90;;
53273;SDS011;39163;52.696;6.758;2024-03-02T12:19:26;4.03;;;0.50;;
53273;SDS011;39163;52.696;6.758;2024-03-02T12:21:52;4.10;;;0.63;;
53273;SDS011;39163;52.696;6.758;2024-03-02T12:24:20;3.35;;;0.65;;
53273;SDS011;39163;52.696;6.758;2024-03-02T12:26:48;2.10;;;0.57;;
53273;SDS011;39163;52.696;6.758;2024-03-02T12:29:16;2.50;;;0.40;;
53273;SDS011;39163;52.696;6.758;2024-03-02T12:31:45;1.38;;;0.45;;
53273;SDS011;39163;52.696;6.758;2024-03-02T12:34:17;1.23;;;0.40;;
53273;SDS011;39163;52.696;6.758;2024-03-02T12:36:45;1.88;;;0.50;;
53273;SDS011;39163;52.696;6.758;2024-03-02T12:39:15;1.70;;;0.60;;
53273;SDS011;39163;52.696;6.758;2024-03-02T12:41:42;1.60;;;0.50;;
53273;SDS011;39163;52.696;6.758;2024-03-02T12:44:09;1.92;;;0.50;;
53273;SDS011;39163;52.696;6.758;2024-03-02T12:46:37;2.00;;;0.63;;
53273;SDS011;39163;52.696;6.758;2024-03-02T12:49:05;3.03;;;0.70;;
53273;SDS011;39163;52.696;6.758;2024-03-02T12:51:37;3.40;;;0.90;;
53273;SDS011;39163;52.696;6.758;2024-03-02T12:54:06;2.45;;;1.00;;
53273;SDS011;39163;52.696;6.758;2024-03-02T12:56:33;2.22;;;0.90;;
53273;SDS011;39163;52.696;6.758;2024-03-02T12:59:01;2.60;;;1.00;;
53273;SDS011;39163;52.696;6.758;2024-03-02T13:01:28;3.53;;;1.27;;
53273;SDS011;39163;52.696;6.758;2024-03-02T13:03:55;2.80;;;1.30;;
53273;SDS011;39163;52.696;6.758;2024-03-02T13:06:24;3.22;;;0.60;;
53273;SDS011;39163;52.696;6.758;2024-03-02T13:08:54;3.15;;;0.63;;
53273;SDS011;39163;52.696;6.758;2024-03-02T13:11:21;2.80;;;0.70;;
53273;SDS011;39163;52.696;6.758;2024-03-02T13:13:49;2.45;;;0.60;;
53273;SDS011;39163;52.696;6.758;2024-03-02T13:16:17;3.40;;;0.50;;
53273;SDS011;39163;52.696;6.758;2024-03-02T13:18:45;1.00;;;0.45;;
53273;SDS011;39163;52.696;6.758;2024-03-02T13:21:12;1.52;;;0.40;;
53273;SDS011;39163;52.696;6.758;2024-03-02T13:23:40;1.90;;;0.38;;
53273;SDS011;39163;52.696;6.758;2024-03-02T13:26:08;1.20;;;0.40;;
53273;SDS011;39163;52.696;6.758;2024-03-02T13:28:37;1.50;;;0.30;;
53273;SDS011;39163;52.696;6.758;2024-03-02T13:31:05;1.33;;;0.40;;
53273;SDS011;39163;52.696;6.758;2024-03-02T13:33:32;1.70;;;0.50;;
53273;SDS011;39163;52.696;6.758;2024-03-02T13:35:59;2.70;;;0.30;;
53273;SDS011;39163;52.696;6.758;2024-03-02T13:38:26;1.23;;;0.30;;
53273;SDS011;39163;52.696;6.758;2024-03-02T13:40:53;1.75;;;0.30;;
53273;SDS011;39163;52.696;6.758;2024-03-02T13:43:22;3.05;;;0.30;;
53273;SDS011;39163;52.696;6.758;2024-03-02T13:45:49;1.45;;;0.40;;
53273;SDS011;39163;52.696;6.758;2024-03-02T13:48:18;2.35;;;0.50;;
53273;SDS011;39163;52.696;6.758;2024-03-02T13:50:45;0.93;;;0.30;;
53273;SDS011;39163;52.696;6.758;2024-03-02T13:53:12;1.33;;;0.43;;
53273;SDS011;39163;52.696;6.758;2024-03-02T13:55:39;1.27;;;0.30;;
53273;SDS011;39163;52.696;6.758;2024-03-02T13:58:07;1.55;;;0.30;;
53273;SDS011;39163;52.696;6.758;2024-03-02T14:00:36;2.38;;;0.40;;
53273;SDS011;39163;52.696;6.758;2024-03-02T14:03:03;1.38;;;0.38;;
53273;SDS011;39163;52.696;6.758;2024-03-02T14:05:32;1.85;;;0.68;;
53273;SDS011;39163;52.696;6.758;2024-03-02T14:07:59;2.10;;;0.55;;
53273;SDS011;39163;52.696;6.758;2024-03-02T14:10:26;1.08;;;0.30;;
53273;SDS011;39163;52.696;6.758;2024-03-02T14:12:54;1.00;;;0.40;;
53273;SDS011;39163;52.696;6.758;2024-03-02T14:15:21;1.42;;;0.30;;
53273;SDS011;39163;52.696;6.758;2024-03-02T14:17:50;0.80;;;0.30;;
53273;SDS011;39163;52.696;6.758;2024-03-02T14:20:17;1.73;;;0.40;;
53273;SDS011;39163;52.696;6.758;2024-03-02T14:22:47;1.63;;;0.43;;
53273;SDS011;39163;52.696;6.758;2024-03-02T14:25:15;3.58;;;0.43;;
53273;SDS011;39163;52.696;6.758;2024-03-02T14:27:42;3.05;;;0.30;;
53273;SDS011;39163;52.696;6.758;2024-03-02T14:30:10;2.58;;;0.43;;
53273;SDS011;39163;52.696;6.758;2024-03-02T14:32:38;2.00;;;0.30;;
53273;SDS011;39163;52.696;6.758;2024-03-02T14:35:07;1.35;;;0.35;;
53273;SDS011;39163;52.696;6.758;2024-03-02T14:37:36;2.40;;;0.30;;
53273;SDS011;39163;52.696;6.758;2024-03-02T14:40:04;2.97;;;0.40;;
53273;SDS011;39163;52.696;6.758;2024-03-02T14:42:34;2.92;;;0.60;;
53273;SDS011;39163;52.696;6.758;2024-03-02T14:45:01;1.58;;;0.38;;
53273;SDS011;39163;52.696;6.758;2024-03-02T14:47:31;2.42;;;0.43;;
53273;SDS011;39163;52.696;6.758;2024-03-02T14:50:00;1.88;;;0.40;;
53273;SDS011;39163;52.696;6.758;2024-03-02T14:52:32;1.67;;;0.32;;
53273;SDS011;39163;52.696;6.758;2024-03-02T14:54:59;2.00;;;0.40;;